sensor_id;sensor_type;location;lat;lon;timestamp;temperature;humidity
62339;DHT22;48368;53.406;6.214;2024-03-22T00:00:21;9.60;99.90
62339;DHT22;48368;53.406;6.214;2024-03-22T00:02:47;9.60;99.90
62339;DHT22;48368;53.406;6.214;2024-03-22T00:05:12;9.60;99.90
62339;DHT22;48368;53.406;6.214;2024-03-22T00:07:39;9.60;99.90
62339;DHT22;48368;53.406;6.214;2024-03-22T00:10:06;9.60;99.90
62339;DHT22;48368;53.406;6.214;2024-03-22T00:12:32;9.60;99.90
62339;DHT22;48368;53.406;6.214;2024-03-22T00:14:57;9.70;99.90
62339;DHT22;48368;53.406;6.214;2024-03-22T00:17:23;9.60;99.90
62339;DHT22;48368;53.406;6.214;2024-03-22T00:19:49;9.60;99.90
62339;DHT22;48368;53.406;6.214;2024-03-22T00:22:14;9.70;99.90
62339;DHT22;48368;53.406;6.214;2024-03-22T00:24:41;9.70;99.90
62339;DHT22;48368;53.406;6.214;2024-03-22T00:27:06;9.70;99.90
62339;DHT22;48368;53.406;6.214;2024-03-22T00:29:32;9.70;99.90
62339;DHT22;48368;53.406;6.214;2024-03-22T00:32:04;9.70;99.90
62339;DHT22;48368;53.406;6.214;2024-03-22T00:34:34;9.70;99.90
62339;DHT22;48368;53.406;6.214;2024-03-22T00:37:00;9.70;99.90
62339;DHT22;48368;53.406;6.214;2024-03-22T00:39:26;9.70;99.90
62339;DHT22;48368;53.406;6.214;2024-03-22T00:41:52;9.70;99.90
62339;DHT22;48368;53.406;6.214;2024-03-22T00:44:17;9.70;99.90
62339;DHT22;48368;53.406;6.214;2024-03-22T00:46:43;9.70;99.90
62339;DHT22;48368;53.406;6.214;2024-03-22T00:49:09;9.80;99.90
62339;DHT22;48368;53.406;6.214;2024-03-22T00:51:34;9.80;99.90
62339;DHT22;48368;53.406;6.214;2024-03-22T00:54:01;9.80;99.90
62339;DHT22;48368;53.406;6.214;2024-03-22T00:56:27;9.80;99.90
62339;DHT22;48368;53.406;6.214;2024-03-22T00:58:52;9.80;99.90
62339;DHT22;48368;53.406;6.214;2024-03-22T01:01:18;9.80;99.90
62339;DHT22;48368;53.406;6.214;2024-03-22T01:03:44;9.80;99.90
62339;DHT22;48368;53.406;6.214;2024-03-22T01:06:09;9.80;99.90
62339;DHT22;48368;53.406;6.214;2024-03-22T01:08:35;9.80;99.90
62339;DHT22;48368;53.406;6.214;2024-03-22T01:11:01;9.80;99.90
62339;DHT22;48368;53.406;6.214;2024-03-22T01:13:29;9.80;99.90
62339;DHT22;48368;53.406;6.214;2024-03-22T01:15:57;9.80;99.90
62339;DHT22;48368;53.406;6.214;2024-03-22T01:18:22;9.90;99.90
62339;DHT22;48368;53.406;6.214;2024-03-22T01:20:48;9.80;99.90
62339;DHT22;48368;53.406;6.214;2024-03-22T01:23:13;9.80;99.90
62339;DHT22;48368;53.406;6.214;2024-03-22T01:25:39;9.90;99.90
62339;DHT22;48368;53.406;6.214;2024-03-22T01:28:05;9.90;99.90
62339;DHT22;48368;53.406;6.214;2024-03-22T01:30:30;9.90;99.90
62339;DHT22;48368;53.406;6.214;2024-03-22T01:32:56;9.90;99.90
62339;DHT22;48368;53.406;6.214;2024-03-22T01:35:22;9.90;99.90
62339;DHT22;48368;53.406;6.214;2024-03-22T01:37:47;9.90;99.90
62339;DHT22;48368;53.406;6.214;2024-03-22T01:40:14;9.90;99.90
62339;DHT22;48368;53.406;6.214;2024-03-22T01:42:39;9.90;99.90
62339;DHT22;48368;53.406;6.214;2024-03-22T01:45:14;9.90;99.90
62339;DHT22;48368;53.406;6.214;2024-03-22T01:47:41;10.00;99.90
62339;DHT22;48368;53.406;6.214;2024-03-22T01:50:07;10.00;99.90
62339;DHT22;48368;53.406;6.214;2024-03-22T01:52:33;10.00;99.90
62339;DHT22;48368;53.406;6.214;2024-03-22T01:54:59;10.00;99.90
62339;DHT22;48368;53.406;6.214;2024-03-22T01:57:25;10.00;99.90
62339;DHT22;48368;53.406;6.214;2024-03-22T01:59:54;10.00;99.90
62339;DHT22;48368;53.406;6.214;2024-03-22T02:02:21;10.00;99.90
62339;DHT22;48368;53.406;6.214;2024-03-22T02:04:50;10.10;99.90
62339;DHT22;48368;53.406;6.214;2024-03-22T02:07:16;10.10;99.90
62339;DHT22;48368;53.406;6.214;2024-03-22T02:09:42;10.10;99.90
62339;DHT22;48368;53.406;6.214;2024-03-22T02:12:08;10.10;99.90
62339;DHT22;48368;53.406;6.214;2024-03-22T02:14:34;10.10;99.90
62339;DHT22;48368;53.406;6.214;2024-03-22T02:17:00;10.10;99.90
62339;DHT22;48368;53.406;6.214;2024-03-22T02:19:25;10.10;99.90
62339;DHT22;48368;53.406;6.214;2024-03-22T02:21:51;10.20;99.90
62339;DHT22;48368;53.406;6.214;2024-03-22T02:24:16;10.20;99.90
62339;DHT22;48368;53.406;6.214;2024-03-22T02:26:42;10.20;99.90
62339;DHT22;48368;53.406;6.214;2024-03-22T02:29:08;10.20;99.90
62339;DHT22;48368;53.406;6.214;2024-03-22T02:31:33;10.20;99.90
62339;DHT22;48368;53.406;6.214;2024-03-22T02:33:59;10.20;99.90
62339;DHT22;48368;53.406;6.214;2024-03-22T02:36:26;10.20;99.90
62339;DHT22;48368;53.406;6.214;2024-03-22T02:38:51;10.20;99.90
62339;DHT22;48368;53.406;6.214;2024-03-22T02:41:17;10.20;99.90
62339;DHT22;48368;53.406;6.214;2024-03-22T02:43:42;10.20;99.90
62339;DHT22;48368;53.406;6.214;2024-03-22T02:46:08;10.20;99.90
62339;DHT22;48368;53.406;6.214;2024-03-22T02:48:34;10.20;99.90
62339;DHT22;48368;53.406;6.214;2024-03-22T02:51:02;10.20;99.90
62339;DHT22;48368;53.406;6.214;2024-03-22T02:53:37;10.20;99.90
62339;DHT22;48368;53.406;6.214;2024-03-22T02:56:03;10.20;99.90
62339;DHT22;48368;53.406;6.214;2024-03-22T02:58:29;10.20;99.90
62339;DHT22;48368;53.406;6.214;2024-03-22T03:00:55;10.20;99.90
62339;DHT22;48368;53.406;6.214;2024-03-22T03:03:20;10.20;99.90
62339;DHT22;48368;53.406;6.214;2024-03-22T03:05:46;10.30;99.90
62339;DHT22;48368;53.406;6.214;2024-03-22T03:08:11;10.30;99.90
62339;DHT22;48368;53.406;6.214;2024-03-22T03:10:40;10.30;99.90
62339;DHT22;48368;53.406;6.214;2024-03-22T03:13:05;10.30;99.90
62339;DHT22;48368;53.406;6.214;2024-03-22T03:15:31;10.30;99.90
62339;DHT22;48368;53.406;6.214;2024-03-22T03:17:57;10.30;99.90
62339;DHT22;48368;53.406;6.214;2024-03-22T03:20:25;10.30;99.90
62339;DHT22;48368;53.406;6.214;2024-03-22T03:22:52;10.30;99.90
62339;DHT22;48368;53.406;6.214;2024-03-22T03:25:17;10.30;99.90
62339;DHT22;48368;53.406;6.214;2024-03-22T03:27:43;10.30;99.90
62339;DHT22;48368;53.406;6.214;2024-03-22T03:30:09;10.30;99.90
62339;DHT22;48368;53.406;6.214;2024-03-22T03:32:34;10.30;99.90
62339;DHT22;48368;53.406;6.214;2024-03-22T03:35:00;10.30;99.90
62339;DHT22;48368;53.406;6.214;2024-03-22T03:37:25;10.30;99.90
62339;DHT22;48368;53.406;6.214;2024-03-22T03:39:51;10.30;99.90
62339;DHT22;48368;53.406;6.214;2024-03-22T03:42:17;10.30;99.90
62339;DHT22;48368;53.406;6.214;2024-03-22T03:44:42;10.30;99.90
62339;DHT22;48368;53.406;6.214;2024-03-22T03:47:08;10.30;99.90
62339;DHT22;48368;53.406;6.214;2024-03-22T03:49:34;10.30;99.90
62339;DHT22;48368;53.406;6.214;2024-03-22T03:51:59;10.30;99.90
62339;DHT22;48368;53.406;6.214;2024-03-22T03:54:25;10.30;99.90
62339;DHT22;48368;53.406;6.214;2024-03-22T03:56:54;10.30;99.90
62339;DHT22;48368;53.406;6.214;2024-03-22T03:59:28;10.30;99.90
62339;DHT22;48368;53.406;6.214;2024-03-22T04:01:54;10.30;99.90
62339;DHT22;48368;53.406;6.214;2024-03-22T04:04:20;10.30;99.90
62339;DHT22;48368;53.406;6.214;2024-03-22T04:06:45;10.30;99.90
62339;DHT22;48368;53.406;6.214;2024-03-22T04:09:11;10.30;99.90
62339;DHT22;48368;53.406;6.214;2024-03-22T04:11:40;10.30;99.90
62339;DHT22;48368;53.406;6.214;2024-03-22T04:14:06;10.30;99.90
62339;DHT22;48368;53.406;6.214;2024-03-22T04:16:32;10.30;99.90
62339;DHT22;48368;53.406;6.214;2024-03-22T04:18:58;10.30;99.90
62339;DHT22;48368;53.406;6.214;2024-03-22T04:21:24;10.20;99.90
62339;DHT22;48368;53.406;6.214;2024-03-22T04:23:49;10.30;99.90
62339;DHT22;48368;53.406;6.214;2024-03-22T04:26:15;10.20;99.90
62339;DHT22;48368;53.406;6.214;2024-03-22T04:28:41;10.20;99.90
62339;DHT22;48368;53.406;6.214;2024-03-22T04:31:08;10.20;99.90
62339;DHT22;48368;53.406;6.214;2024-03-22T04:33:35;10.20;99.90
62339;DHT22;48368;53.406;6.214;2024-03-22T04:36:04;10.20;99.90
62339;DHT22;48368;53.406;6.214;2024-03-22T04:38:30;10.20;99.90
62339;DHT22;48368;53.406;6.214;2024-03-22T04:40:57;10.20;99.90
62339;DHT22;48368;53.406;6.214;2024-03-22T04:43:23;10.20;99.90
62339;DHT22;48368;53.406;6.214;2024-03-22T04:45:50;10.10;99.90
62339;DHT22;48368;53.406;6.214;2024-03-22T04:48:20;10.10;99.90
62339;DHT22;48368;53.406;6.214;2024-03-22T04:50:50;10.20;99.90
62339;DHT22;48368;53.406;6.214;2024-03-22T04:53:20;10.10;99.90
62339;DHT22;48368;53.406;6.214;2024-03-22T04:55:49;10.10;99.90
62339;DHT22;48368;53.406;6.214;2024-03-22T04:58:17;10.10;99.90
62339;DHT22;48368;53.406;6.214;2024-03-22T05:00:43;10.10;99.90
62339;DHT22;48368;53.406;6.214;2024-03-22T05:03:09;10.10;99.90
62339;DHT22;48368;53.406;6.214;2024-03-22T05:05:35;10.10;99.90
62339;DHT22;48368;53.406;6.214;2024-03-22T05:08:01;10.10;99.90
62339;DHT22;48368;53.406;6.214;2024-03-22T05:10:27;10.10;99.90
62339;DHT22;48368;53.406;6.214;2024-03-22T05:12:54;10.10;99.90
62339;DHT22;48368;53.406;6.214;2024-03-22T05:15:23;10.00;99.90
62339;DHT22;48368;53.406;6.214;2024-03-22T05:17:51;10.00;99.90
62339;DHT22;48368;53.406;6.214;2024-03-22T05:20:16;10.00;99.90
62339;DHT22;48368;53.406;6.214;2024-03-22T05:22:47;10.00;99.90
62339;DHT22;48368;53.406;6.214;2024-03-22T05:25:13;10.00;99.90
62339;DHT22;48368;53.406;6.214;2024-03-22T05:27:40;10.00;99.90
62339;DHT22;48368;53.406;6.214;2024-03-22T05:30:08;10.00;99.90
62339;DHT22;48368;53.406;6.214;2024-03-22T05:32:33;10.00;99.90
62339;DHT22;48368;53.406;6.214;2024-03-22T05:34:59;9.90;99.90
62339;DHT22;48368;53.406;6.214;2024-03-22T05:37:24;9.90;99.90
62339;DHT22;48368;53.406;6.214;2024-03-22T05:39:50;9.90;99.90
62339;DHT22;48368;53.406;6.214;2024-03-22T05:42:16;9.90;99.90
62339;DHT22;48368;53.406;6.214;2024-03-22T05:44:41;9.90;99.90
62339;DHT22;48368;53.406;6.214;2024-03-22T05:47:07;9.80;99.90
62339;DHT22;48368;53.406;6.214;2024-03-22T05:49:32;9.80;99.90
62339;DHT22;48368;53.406;6.214;2024-03-22T05:51:58;9.80;99.90
62339;DHT22;48368;53.406;6.214;2024-03-22T05:54:24;9.80;99.90
62339;DHT22;48368;53.406;6.214;2024-03-22T05:56:49;9.80;99.90
62339;DHT22;48368;53.406;6.214;2024-03-22T05:59:15;9.80;99.90
62339;DHT22;48368;53.406;6.214;2024-03-22T06:01:40;9.80;99.90
62339;DHT22;48368;53.406;6.214;2024-03-22T06:04:06;9.80;99.90
62339;DHT22;48368;53.406;6.214;2024-03-22T06:06:35;9.80;99.90
62339;DHT22;48368;53.406;6.214;2024-03-22T06:09:02;9.80;99.90
62339;DHT22;48368;53.406;6.214;2024-03-22T06:11:34;9.80;99.90
62339;DHT22;48368;53.406;6.214;2024-03-22T06:14:00;9.70;99.90
62339;DHT22;48368;53.406;6.214;2024-03-22T06:16:26;9.70;99.90
62339;DHT22;48368;53.406;6.214;2024-03-22T06:18:52;9.70;99.90
62339;DHT22;48368;53.406;6.214;2024-03-22T06:21:21;9.70;99.90
62339;DHT22;48368;53.406;6.214;2024-03-22T06:23:50;9.60;99.90
62339;DHT22;48368;53.406;6.214;2024-03-22T06:26:16;9.60;99.90
62339;DHT22;48368;53.406;6.214;2024-03-22T06:28:41;9.60;99.90
62339;DHT22;48368;53.406;6.214;2024-03-22T06:31:07;9.50;99.90
62339;DHT22;48368;53.406;6.214;2024-03-22T06:33:33;9.60;99.90
62339;DHT22;48368;53.406;6.214;2024-03-22T06:36:08;9.60;99.90
62339;DHT22;48368;53.406;6.214;2024-03-22T06:38:34;9.60;99.90
62339;DHT22;48368;53.406;6.214;2024-03-22T06:40:59;9.60;99.90
62339;DHT22;48368;53.406;6.214;2024-03-22T06:43:25;9.50;99.90
62339;DHT22;48368;53.406;6.214;2024-03-22T06:45:51;9.60;99.90
62339;DHT22;48368;53.406;6.214;2024-03-22T06:48:17;9.60;99.90
62339;DHT22;48368;53.406;6.214;2024-03-22T06:50:43;9.60;99.90
62339;DHT22;48368;53.406;6.214;2024-03-22T06:53:08;9.60;99.90
62339;DHT22;48368;53.406;6.214;2024-03-22T06:55:36;9.50;99.90
62339;DHT22;48368;53.406;6.214;2024-03-22T06:58:01;9.60;99.90
62339;DHT22;48368;53.406;6.214;2024-03-22T07:00:29;9.50;99.90
62339;DHT22;48368;53.406;6.214;2024-03-22T07:02:55;9.50;99.90
62339;DHT22;48368;53.406;6.214;2024-03-22T07:05:22;9.50;99.90
62339;DHT22;48368;53.406;6.214;2024-03-22T07:07:47;9.50;99.90
62339;DHT22;48368;53.406;6.214;2024-03-22T07:10:15;9.50;99.90
62339;DHT22;48368;53.406;6.214;2024-03-22T07:12:41;9.40;99.90
62339;DHT22;48368;53.406;6.214;2024-03-22T07:15:07;9.40;99.90
62339;DHT22;48368;53.406;6.214;2024-03-22T07:17:32;9.40;99.90
62339;DHT22;48368;53.406;6.214;2024-03-22T07:19:59;9.40;99.90
62339;DHT22;48368;53.406;6.214;2024-03-22T07:22:25;9.40;99.90
62339;DHT22;48368;53.406;6.214;2024-03-22T07:24:51;9.40;99.90
62339;DHT22;48368;53.406;6.214;2024-03-22T07:27:17;9.40;99.90
62339;DHT22;48368;53.406;6.214;2024-03-22T07:29:43;9.40;99.90
62339;DHT22;48368;53.406;6.214;2024-03-22T07:32:09;9.40;99.90
62339;DHT22;48368;53.406;6.214;2024-03-22T07:34:34;9.40;99.90
62339;DHT22;48368;53.406;6.214;2024-03-22T07:37:03;9.40;99.90
62339;DHT22;48368;53.406;6.214;2024-03-22T07:39:29;9.40;99.90
62339;DHT22;48368;53.406;6.214;2024-03-22T07:41:55;9.40;99.90
62339;DHT22;48368;53.406;6.214;2024-03-22T07:44:20;9.40;99.90
62339;DHT22;48368;53.406;6.214;2024-03-22T07:46:49;9.40;99.90
62339;DHT22;48368;53.406;6.214;2024-03-22T07:49:15;9.40;99.90
62339;DHT22;48368;53.406;6.214;2024-03-22T07:51:40;9.40;99.90
62339;DHT22;48368;53.406;6.214;2024-03-22T07:54:06;9.40;99.90
62339;DHT22;48368;53.406;6.214;2024-03-22T07:56:31;9.40;99.90
62339;DHT22;48368;53.406;6.214;2024-03-22T07:58:57;9.40;99.90
62339;DHT22;48368;53.406;6.214;2024-03-22T08:01:23;9.40;99.90
62339;DHT22;48368;53.406;6.214;2024-03-22T08:03:50;9.40;99.90
62339;DHT22;48368;53.406;6.214;2024-03-22T08:06:16;9.50;99.90
62339;DHT22;48368;53.406;6.214;2024-03-22T08:08:41;9.50;99.90
62339;DHT22;48368;53.406;6.214;2024-03-22T08:11:07;9.50;99.90
62339;DHT22;48368;53.406;6.214;2024-03-22T08:13:33;9.50;99.90
62339;DHT22;48368;53.406;6.214;2024-03-22T08:15:58;9.50;99.90
62339;DHT22;48368;53.406;6.214;2024-03-22T08:18:24;9.50;99.90
62339;DHT22;48368;53.406;6.214;2024-03-22T08:20:49;9.50;99.90
62339;DHT22;48368;53.406;6.214;2024-03-22T08:23:15;9.50;99.90
62339;DHT22;48368;53.406;6.214;2024-03-22T08:25:43;9.50;99.90
62339;DHT22;48368;53.406;6.214;2024-03-22T08:28:08;9.50;99.90
62339;DHT22;48368;53.406;6.214;2024-03-22T08:30:37;9.50;99.90
62339;DHT22;48368;53.406;6.214;2024-03-22T08:33:03;9.50;99.90
62339;DHT22;48368;53.406;6.214;2024-03-22T08:35:29;9.50;99.90
62339;DHT22;48368;53.406;6.214;2024-03-22T08:37:56;9.50;99.90
62339;DHT22;48368;53.406;6.214;2024-03-22T08:40:22;9.50;99.90
62339;DHT22;48368;53.406;6.214;2024-03-22T08:42:48;9.50;99.90
62339;DHT22;48368;53.406;6.214;2024-03-22T08:45:14;9.50;99.90
62339;DHT22;48368;53.406;6.214;2024-03-22T08:47:42;9.50;99.90
62339;DHT22;48368;53.406;6.214;2024-03-22T08:50:08;9.50;99.90
62339;DHT22;48368;53.406;6.214;2024-03-22T08:52:34;9.40;99.90
62339;DHT22;48368;53.406;6.214;2024-03-22T08:55:01;9.50;99.90
62339;DHT22;48368;53.406;6.214;2024-03-22T08:57:27;9.50;99.90
62339;DHT22;48368;53.406;6.214;2024-03-22T08:59:52;9.40;99.90
62339;DHT22;48368;53.406;6.214;2024-03-22T09:02:18;9.40;99.90
62339;DHT22;48368;53.406;6.214;2024-03-22T09:04:43;9.40;99.90
62339;DHT22;48368;53.406;6.214;2024-03-22T09:07:09;9.40;99.90
62339;DHT22;48368;53.406;6.214;2024-03-22T09:09:35;9.50;99.90
62339;DHT22;48368;53.406;6.214;2024-03-22T09:12:00;9.50;99.90
62339;DHT22;48368;53.406;6.214;2024-03-22T09:14:26;9.50;99.90
62339;DHT22;48368;53.406;6.214;2024-03-22T09:16:52;9.50;99.90
62339;DHT22;48368;53.406;6.214;2024-03-22T09:19:17;9.50;99.90
62339;DHT22;48368;53.406;6.214;2024-03-22T09:21:43;9.50;99.90
62339;DHT22;48368;53.406;6.214;2024-03-22T09:24:09;9.50;99.90
62339;DHT22;48368;53.406;6.214;2024-03-22T09:26:35;9.50;99.90
62339;DHT22;48368;53.406;6.214;2024-03-22T09:29:00;9.50;99.90
62339;DHT22;48368;53.406;6.214;2024-03-22T09:31:26;9.50;99.90
62339;DHT22;48368;53.406;6.214;2024-03-22T09:33:54;9.50;99.90
62339;DHT22;48368;53.406;6.214;2024-03-22T09:36:21;9.50;99.90
62339;DHT22;48368;53.406;6.214;2024-03-22T09:38:47;9.60;99.90
62339;DHT22;48368;53.406;6.214;2024-03-22T09:41:14;9.60;99.90
62339;DHT22;48368;53.406;6.214;2024-03-22T09:43:40;9.50;99.90
62339;DHT22;48368;53.406;6.214;2024-03-22T09:46:06;9.60;99.90
62339;DHT22;48368;53.406;6.214;2024-03-22T09:48:33;9.60;99.90
62339;DHT22;48368;53.406;6.214;2024-03-22T09:51:00;9.60;99.90
62339;DHT22;48368;53.406;6.214;2024-03-22T09:53:27;9.60;99.90
62339;DHT22;48368;53.406;6.214;2024-03-22T09:55:55;9.60;99.90
62339;DHT22;48368;53.406;6.214;2024-03-22T09:58:24;9.60;99.90
62339;DHT22;48368;53.406;6.214;2024-03-22T10:00:50;9.60;99.90
62339;DHT22;48368;53.406;6.214;2024-03-22T10:03:16;9.60;99.90
62339;DHT22;48368;53.406;6.214;2024-03-22T10:05:42;9.60;99.90
62339;DHT22;48368;53.406;6.214;2024-03-22T10:08:07;9.60;99.90
62339;DHT22;48368;53.406;6.214;2024-03-22T10:10:33;9.60;99.90
62339;DHT22;48368;53.406;6.214;2024-03-22T10:13:03;9.60;99.90
62339;DHT22;48368;53.406;6.214;2024-03-22T10:15:30;9.60;99.90
62339;DHT22;48368;53.406;6.214;2024-03-22T10:17:57;9.60;99.90
62339;DHT22;48368;53.406;6.214;2024-03-22T10:20:23;9.60;99.90
62339;DHT22;48368;53.406;6.214;2024-03-22T10:22:53;9.60;99.90
62339;DHT22;48368;53.406;6.214;2024-03-22T10:25:20;9.60;99.90
62339;DHT22;48368;53.406;6.214;2024-03-22T10:27:45;9.60;99.90
62339;DHT22;48368;53.406;6.214;2024-03-22T10:30:12;9.60;99.90
62339;DHT22;48368;53.406;6.214;2024-03-22T10:32:40;9.70;99.90
62339;DHT22;48368;53.406;6.214;2024-03-22T10:35:07;9.60;99.90
62339;DHT22;48368;53.406;6.214;2024-03-22T10:37:35;9.70;99.90
62339;DHT22;48368;53.406;6.214;2024-03-22T10:40:04;9.70;99.90
62339;DHT22;48368;53.406;6.214;2024-03-22T10:42:42;9.70;99.90
62339;DHT22;48368;53.406;6.214;2024-03-22T10:45:10;9.80;99.90
62339;DHT22;48368;53.406;6.214;2024-03-22T10:47:37;9.80;99.90
62339;DHT22;48368;53.406;6.214;2024-03-22T10:50:10;9.80;99.90
62339;DHT22;48368;53.406;6.214;2024-03-22T10:52:42;9.80;99.90
62339;DHT22;48368;53.406;6.214;2024-03-22T10:55:14;9.80;99.90
62339;DHT22;48368;53.406;6.214;2024-03-22T10:57:42;9.80;99.90
62339;DHT22;48368;53.406;6.214;2024-03-22T11:00:09;9.80;99.90
62339;DHT22;48368;53.406;6.214;2024-03-22T11:02:37;9.80;99.90
62339;DHT22;48368;53.406;6.214;2024-03-22T11:05:04;9.80;99.90
62339;DHT22;48368;53.406;6.214;2024-03-22T11:07:30;9.70;99.90
62339;DHT22;48368;53.406;6.214;2024-03-22T11:09:57;9.70;99.90
62339;DHT22;48368;53.406;6.214;2024-03-22T11:12:26;9.70;99.90
62339;DHT22;48368;53.406;6.214;2024-03-22T11:14:53;9.80;99.90
62339;DHT22;48368;53.406;6.214;2024-03-22T11:17:19;9.80;99.90
62339;DHT22;48368;53.406;6.214;2024-03-22T11:19:49;9.80;99.90
62339;DHT22;48368;53.406;6.214;2024-03-22T11:22:14;9.80;99.90
62339;DHT22;48368;53.406;6.214;2024-03-22T11:24:41;9.80;99.90
62339;DHT22;48368;53.406;6.214;2024-03-22T11:27:07;9.90;99.90
62339;DHT22;48368;53.406;6.214;2024-03-22T11:29:32;9.90;99.90
62339;DHT22;48368;53.406;6.214;2024-03-22T11:31:59;9.90;99.90
62339;DHT22;48368;53.406;6.214;2024-03-22T11:34:25;9.90;99.90
62339;DHT22;48368;53.406;6.214;2024-03-22T11:36:53;10.00;99.90
62339;DHT22;48368;53.406;6.214;2024-03-22T11:39:19;10.10;99.90
62339;DHT22;48368;53.406;6.214;2024-03-22T11:41:44;10.10;99.90
62339;DHT22;48368;53.406;6.214;2024-03-22T11:44:13;10.20;99.90
62339;DHT22;48368;53.406;6.214;2024-03-22T11:46:39;10.20;99.90
62339;DHT22;48368;53.406;6.214;2024-03-22T11:49:05;10.20;99.90
62339;DHT22;48368;53.406;6.214;2024-03-22T11:51:31;10.20;99.90
62339;DHT22;48368;53.406;6.214;2024-03-22T11:53:57;10.30;99.90
62339;DHT22;48368;53.406;6.214;2024-03-22T11:56:25;10.40;99.90
62339;DHT22;48368;53.406;6.214;2024-03-22T11:58:58;10.40;99.90
62339;DHT22;48368;53.406;6.214;2024-03-22T12:01:23;10.50;99.90
62339;DHT22;48368;53.406;6.214;2024-03-22T12:03:49;10.60;99.90
62339;DHT22;48368;53.406;6.214;2024-03-22T12:06:15;10.60;99.90
62339;DHT22;48368;53.406;6.214;2024-03-22T12:08:41;10.60;99.90
62339;DHT22;48368;53.406;6.214;2024-03-22T12:11:07;10.60;99.90
62339;DHT22;48368;53.406;6.214;2024-03-22T12:13:34;10.60;99.90
62339;DHT22;48368;53.406;6.214;2024-03-22T12:16:00;10.70;99.90
62339;DHT22;48368;53.406;6.214;2024-03-22T12:18:26;10.70;99.90
62339;DHT22;48368;53.406;6.214;2024-03-22T12:20:52;10.70;99.90
62339;DHT22;48368;53.406;6.214;2024-03-22T12:23:18;10.70;99.90
62339;DHT22;48368;53.406;6.214;2024-03-22T12:25:43;10.80;99.90
62339;DHT22;48368;53.406;6.214;2024-03-22T12:28:09;10.80;99.90
62339;DHT22;48368;53.406;6.214;2024-03-22T12:30:35;10.70;99.90
62339;DHT22;48368;53.406;6.214;2024-03-22T12:33:01;10.70;99.90
62339;DHT22;48368;53.406;6.214;2024-03-22T12:35:27;10.70;99.90
62339;DHT22;48368;53.406;6.214;2024-03-22T12:37:53;10.70;99.90
62339;DHT22;48368;53.406;6.214;2024-03-22T12:40:18;10.70;99.90
62339;DHT22;48368;53.406;6.214;2024-03-22T12:42:44;10.70;99.90
62339;DHT22;48368;53.406;6.214;2024-03-22T12:45:10;10.70;99.90
62339;DHT22;48368;53.406;6.214;2024-03-22T12:47:36;10.70;99.90
62339;DHT22;48368;53.406;6.214;2024-03-22T12:50:04;10.70;99.90
62339;DHT22;48368;53.406;6.214;2024-03-22T12:52:30;10.60;99.90
62339;DHT22;48368;53.406;6.214;2024-03-22T12:54:55;10.60;99.90
62339;DHT22;48368;53.406;6.214;2024-03-22T12:57:21;10.60;99.90
62339;DHT22;48368;53.406;6.214;2024-03-22T12:59:46;10.50;99.90
62339;DHT22;48368;53.406;6.214;2024-03-22T13:02:12;10.40;99.90
62339;DHT22;48368;53.406;6.214;2024-03-22T13:04:38;10.40;99.90
62339;DHT22;48368;53.406;6.214;2024-03-22T13:07:03;10.40;99.90
62339;DHT22;48368;53.406;6.214;2024-03-22T13:09:29;10.40;99.90
62339;DHT22;48368;53.406;6.214;2024-03-22T13:11:54;10.40;99.90
62339;DHT22;48368;53.406;6.214;2024-03-22T13:14:20;10.30;99.90
62339;DHT22;48368;53.406;6.214;2024-03-22T13:16:46;10.30;99.90
62339;DHT22;48368;53.406;6.214;2024-03-22T13:19:14;10.20;99.90
62339;DHT22;48368;53.406;6.214;2024-03-22T13:21:40;10.20;99.90
62339;DHT22;48368;53.406;6.214;2024-03-22T13:24:06;10.20;99.90
62339;DHT22;48368;53.406;6.214;2024-03-22T13:26:34;10.10;99.90
62339;DHT22;48368;53.406;6.214;2024-03-22T13:29:00;10.10;99.90
62339;DHT22;48368;53.406;6.214;2024-03-22T13:31:26;10.10;99.90
62339;DHT22;48368;53.406;6.214;2024-03-22T13:33:51;10.00;99.90
62339;DHT22;48368;53.406;6.214;2024-03-22T13:36:20;10.10;99.90
62339;DHT22;48368;53.406;6.214;2024-03-22T13:38:45;10.00;99.90
62339;DHT22;48368;53.406;6.214;2024-03-22T13:41:11;10.00;99.90
62339;DHT22;48368;53.406;6.214;2024-03-22T13:43:37;9.90;99.90
62339;DHT22;48368;53.406;6.214;2024-03-22T13:46:05;9.90;99.90
62339;DHT22;48368;53.406;6.214;2024-03-22T13:48:30;9.90;99.90
62339;DHT22;48368;53.406;6.214;2024-03-22T13:50:58;9.90;99.90
62339;DHT22;48368;53.406;6.214;2024-03-22T13:53:23;10.00;99.90
62339;DHT22;48368;53.406;6.214;2024-03-22T13:55:50;9.90;99.90
62339;DHT22;48368;53.406;6.214;2024-03-22T13:58:16;9.90;99.90
62339;DHT22;48368;53.406;6.214;2024-03-22T14:00:42;9.90;99.90
62339;DHT22;48368;53.406;6.214;2024-03-22T14:03:07;9.90;99.90
62339;DHT22;48368;53.406;6.214;2024-03-22T14:05:35;9.90;99.90
62339;DHT22;48368;53.406;6.214;2024-03-22T14:08:01;9.80;99.90
62339;DHT22;48368;53.406;6.214;2024-03-22T14:10:26;9.90;99.90
62339;DHT22;48368;53.406;6.214;2024-03-22T14:12:53;9.90;99.90
62339;DHT22;48368;53.406;6.214;2024-03-22T14:15:19;9.90;99.90
62339;DHT22;48368;53.406;6.214;2024-03-22T14:17:45;10.00;99.90
62339;DHT22;48368;53.406;6.214;2024-03-22T14:20:11;10.00;99.90
62339;DHT22;48368;53.406;6.214;2024-03-22T14:22:43;9.90;99.90
62339;DHT22;48368;53.406;6.214;2024-03-22T14:25:09;9.90;99.90
62339;DHT22;48368;53.406;6.214;2024-03-22T14:27:35;9.90;99.90
62339;DHT22;48368;53.406;6.214;2024-03-22T14:30:03;9.80;99.90
62339;DHT22;48368;53.406;6.214;2024-03-22T14:32:32;9.80;99.90
62339;DHT22;48368;53.406;6.214;2024-03-22T14:34:57;9.80;99.90
62339;DHT22;48368;53.406;6.214;2024-03-22T14:37:23;9.90;99.90
62339;DHT22;48368;53.406;6.214;2024-03-22T14:39:49;9.80;99.90
62339;DHT22;48368;53.406;6.214;2024-03-22T14:42:14;9.80;99.90
62339;DHT22;48368;53.406;6.214;2024-03-22T14:44:40;9.90;99.90
62339;DHT22;48368;53.406;6.214;2024-03-22T14:47:06;9.90;99.90
62339;DHT22;48368;53.406;6.214;2024-03-22T14:49:31;9.80;99.90
62339;DHT22;48368;53.406;6.214;2024-03-22T14:51:57;9.80;99.90
62339;DHT22;48368;53.406;6.214;2024-03-22T14:54:23;9.80;99.90
62339;DHT22;48368;53.406;6.214;2024-03-22T14:56:48;9.80;99.90
62339;DHT22;48368;53.406;6.214;2024-03-22T14:59:14;9.80;99.90
62339;DHT22;48368;53.406;6.214;2024-03-22T15:01:40;9.80;99.90
62339;DHT22;48368;53.406;6.214;2024-03-22T15:04:05;9.80;99.90
62339;DHT22;48368;53.406;6.214;2024-03-22T15:06:32;9.70;99.90
62339;DHT22;48368;53.406;6.214;2024-03-22T15:08:57;9.70;99.90
62339;DHT22;48368;53.406;6.214;2024-03-22T15:11:24;9.80;99.90
62339;DHT22;48368;53.406;6.214;2024-03-22T15:13:50;9.70;99.90
62339;DHT22;48368;53.406;6.214;2024-03-22T15:16:15;9.80;99.90
62339;DHT22;48368;53.406;6.214;2024-03-22T15:18:42;9.70;99.90
62339;DHT22;48368;53.406;6.214;2024-03-22T15:21:08;9.80;99.90
62339;DHT22;48368;53.406;6.214;2024-03-22T15:23:34;9.90;99.90
62339;DHT22;48368;53.406;6.214;2024-03-22T15:26:00;9.80;99.90
62339;DHT22;48368;53.406;6.214;2024-03-22T15:28:26;9.80;99.90
62339;DHT22;48368;53.406;6.214;2024-03-22T15:30:53;9.70;99.90
62339;DHT22;48368;53.406;6.214;2024-03-22T15:33:18;9.70;99.90